»·PEaware :: SWA472 KLAS-KSNA

SWA472 :: KLAS-KSNA

FLIGHT INFORMATION

Flight Status: Arrived
Operator:
Southwest Airlines
More flights by this operator :: More flights under this callsign
Pilot: Michael C. (16705)
Aircraft: BOEING 737-800
(B738)
More flights by this aircraft type
Origin: KLAS McCarran Intl
United States
Destination: KSNA John Wayne-Orange Co
United States
More flights between these airports :: More routes between these airports
Route: +BOACH8 WHIGG FEYLA ROOBY1
File this flight plan on PilotEdge
Remarks: PBN / A1B1C1D1L1O1S1 NAV / RNVD1E2A1 DOF / 171204 REG / N838NN RVR / 200 PER / C
Altitude:
(Current/Filed)
320ft
Speed:
(Current/Filed)
464kts
Departed: 04-Dec-17 08:21 PM
Arrived: 04-Dec-17 09:10 PM
Distance/Time
Traveled:
197nm/0:49
Distance/Time
To Go:
Arrived

Flight Plot

Page will automatically refresh every two minutes.

Flight plan parsing failed; only flown route is shown


Map Options




Map Legend


Flown Route
Filed Route
Departure Airport
Arrival Airport
Navaid (VOR, NDB)
Fix

Horizontal Profiles

Position Reports

Time Latitude Longitude Heading Altitude Ground
Speed
04-Dec-17 19:39 36.080939 -115.147828 54 2189ft 0kts
04-Dec-17 19:40 36.080939 -115.147828 54 2189ft 0kts
04-Dec-17 19:41 36.080939 -115.147828 54 2189ft 0kts
04-Dec-17 19:42 36.080939 -115.147828 54 2189ft 0kts
04-Dec-17 19:43 36.080939 -115.147828 54 2189ft 0kts
04-Dec-17 19:44 36.080939 -115.147828 54 2189ft 0kts
04-Dec-17 19:45 36.080939 -115.147828 54 2189ft 0kts
04-Dec-17 19:46 36.080939 -115.147828 54 2189ft 0kts
04-Dec-17 19:47 36.080939 -115.147828 54 2189ft 0kts
04-Dec-17 19:48 36.080939 -115.147828 54 2189ft 0kts
04-Dec-17 19:49 36.080939 -115.147828 54 2189ft 0kts
04-Dec-17 19:50 36.080939 -115.147828 54 2189ft 0kts
04-Dec-17 19:51 36.080939 -115.147828 54 2189ft 0kts
04-Dec-17 19:52 36.080939 -115.147828 54 2189ft 0kts
04-Dec-17 19:53 36.080939 -115.147828 54 2189ft 0kts
04-Dec-17 19:54 36.080939 -115.147828 54 2189ft 0kts
04-Dec-17 19:55 36.080939 -115.147828 54 2189ft 0kts
04-Dec-17 19:56 36.080939 -115.147828 54 2189ft 0kts
04-Dec-17 19:57 36.080939 -115.147828 54 2189ft 0kts
04-Dec-17 19:58 36.080939 -115.147828 54 2189ft 0kts
04-Dec-17 19:59 36.080939 -115.147828 54 2189ft 0kts
04-Dec-17 20:00 36.080939 -115.147828 54 2189ft 0kts
04-Dec-17 20:01 36.080939 -115.147828 54 2189ft 0kts
04-Dec-17 20:02 36.080939 -115.147828 54 2189ft 0kts
04-Dec-17 20:03 36.080939 -115.147828 54 2189ft 0kts
04-Dec-17 20:04 36.080939 -115.147828 54 2189ft 0kts
04-Dec-17 20:05 36.080938 -115.147830 54 2189ft 0kts
04-Dec-17 20:06 36.080588 -115.148445 54 2189ft 2kts
04-Dec-17 20:07 36.080525 -115.148555 54 2189ft 0kts
04-Dec-17 20:08 36.080525 -115.148555 54 2189ft 0kts
04-Dec-17 20:09 36.080525 -115.148555 54 2189ft 0kts
04-Dec-17 20:10 36.080525 -115.148555 54 2189ft 0kts
04-Dec-17 20:11 36.080525 -115.148555 54 2189ft 0kts
04-Dec-17 20:12 36.080525 -115.148555 54 2189ft 0kts
04-Dec-17 20:13 36.080525 -115.148555 54 2189ft 0kts
04-Dec-17 20:14 36.080525 -115.148555 54 2189ft 0kts
04-Dec-17 20:15 36.080529 -115.148428 109 2189ft 0kts
04-Dec-17 20:16 36.080061 -115.147943 154 2189ft 2kts
04-Dec-17 20:17 36.078273 -115.147277 189 2189ft 10kts
04-Dec-17 20:18 36.078016 -115.151817 270 2189ft 16kts
04-Dec-17 20:19 36.078016 -115.158844 271 2189ft 18kts
04-Dec-17 20:20 36.077266 -115.163524 204 2189ft 12kts
04-Dec-17 20:21 36.074585 -115.165043 204 2189ft 9kts
04-Dec-17 20:22 36.073921 -115.166295 290 2189ft 0kts
04-Dec-17 20:23 36.073922 -115.166296 290 2189ft 0kts
04-Dec-17 20:24 36.073922 -115.166298 290 2189ft 0kts
04-Dec-17 20:25 36.074529 -115.167183 345 2189ft 9kts
04-Dec-17 20:26 36.094985 -115.155107 27 2799ft 163kts
04-Dec-17 20:27 36.122143 -115.179323 267 5411ft 211kts
04-Dec-17 20:28 36.110334 -115.263937 252 7957ft 265kts
04-Dec-17 20:29 36.049558 -115.317115 202 10198ft 290kts
04-Dec-17 20:30 35.964326 -115.357707 202 10550ft 365kts
04-Dec-17 20:31 35.864809 -115.367217 166 14211ft 378kts
04-Dec-17 20:32 35.762853 -115.327557 167 17232ft 390kts
04-Dec-17 20:33 35.660254 -115.323680 215 19947ft 366kts
04-Dec-17 20:34 35.590689 -115.412036 232 22531ft 362kts
04-Dec-17 20:35 35.522423 -115.504133 232 24796ft 367kts
04-Dec-17 20:36 35.453077 -115.597477 233 26758ft 371kts
04-Dec-17 20:37 35.383380 -115.691678 233 28404ft 376kts
04-Dec-17 20:38 35.323674 -115.771782 234 30323ft 363kts
04-Dec-17 20:39 35.255853 -115.862491 234 32063ft 358kts
04-Dec-17 20:40 35.187131 -115.951614 233 32190ft 358kts
04-Dec-17 20:41 35.117497 -116.039063 233 32193ft 361kts
04-Dec-17 20:42 35.047574 -116.127398 233 32195ft 361kts
04-Dec-17 20:43 34.977800 -116.214877 233 32204ft 360kts
04-Dec-17 20:44 34.907879 -116.302238 233 31903ft 355kts
04-Dec-17 20:45 34.839679 -116.388843 234 29120ft 353kts
04-Dec-17 20:46 34.772852 -116.473800 233 26922ft 343kts
04-Dec-17 20:47 34.706427 -116.558016 232 25332ft 335kts
04-Dec-17 20:48 34.636471 -116.631161 224 23895ft 339kts
04-Dec-17 20:49 34.567185 -116.698225 224 22316ft 335kts
04-Dec-17 20:50 34.494416 -116.769877 227 20637ft 326kts
04-Dec-17 20:51 34.430224 -116.845220 228 19048ft 318kts
04-Dec-17 20:52 34.367147 -116.918602 227 17487ft 312kts
04-Dec-17 20:53 34.304102 -116.991371 227 15946ft 312kts
04-Dec-17 20:54 34.235761 -117.056785 214 14386ft 318kts
04-Dec-17 20:55 34.159049 -117.110637 210 12955ft 316kts
04-Dec-17 20:56 34.084409 -117.153902 209 12577ft 279kts
04-Dec-17 20:57 34.016321 -117.193514 209 12236ft 269kts
04-Dec-17 20:58 33.948188 -117.232560 207 11654ft 274kts
04-Dec-17 20:59 33.879155 -117.270161 206 10622ft 271kts
04-Dec-17 21:00 33.811146 -117.308434 208 9988ft 257kts
04-Dec-17 21:01 33.748974 -117.345516 207 9933ft 250kts
04-Dec-17 21:02 33.685030 -117.383529 207 8840ft 271kts
04-Dec-17 21:03 33.622152 -117.420752 206 8336ft 233kts
04-Dec-17 21:04 33.574921 -117.465454 256 7539ft 224kts
04-Dec-17 21:05 33.573858 -117.541106 270 6645ft 226kts
04-Dec-17 21:06 33.572820 -117.615216 269 5581ft 217kts
04-Dec-17 21:07 33.571488 -117.687514 270 4580ft 212kts
04-Dec-17 21:08 33.560704 -117.755123 255 3609ft 197kts
04-Dec-17 21:09 33.546186 -117.815383 256 2912ft 180kts
04-Dec-17 21:10 33.555660 -117.872556 291 2958ft 177kts
04-Dec-17 21:11 33.577484 -117.924048 313 2955ft 172kts
04-Dec-17 21:12 33.612862 -117.912714 49 1864ft 143kts
04-Dec-17 21:13 33.644328 -117.888961 31 613ft 126kts
04-Dec-17 21:14 33.673823 -117.870116 30 64ft 94kts
04-Dec-17 21:15 33.677356 -117.866746 113 64ft 0kts
04-Dec-17 21:16 33.677356 -117.866744 113 64ft 0kts
04-Dec-17 21:17 33.677113 -117.866136 116 64ft 11kts
04-Dec-17 21:18 33.676449 -117.865035 141 64ft 0kts
04-Dec-17 21:19 33.676172 -117.864599 119 64ft 3kts
04-Dec-17 21:20 33.676081 -117.864410 119 64ft 0kts

Navigation Log

Ident Type
Flight plan parsing failed, navigation log unavailable